Time;durP1;ratioP1;P1;durP2;ratioP2;P2;SDS_P1;SDS_P2;PMS_P1;PMS_P2;Temp;Humidity;BMP_temperature;BMP_pressure;BME280_temperature;BME280_humidity;BME280_pressure;Samples;Min_cycle;Max_cycle;Signal;HPM_P1;HPM_P2
2023/02/03 00:01:13;;;;;;;0.63;0.63;;;;;;;-0.88;74.69;100310.81;5107215;28;20020;-72
2023/02/03 00:03:39;;;;;;;0.70;0.70;;;;;;;-0.93;74.64;100306.38;5106916;28;20034;-74
2023/02/03 00:06:05;;;;;;;0.63;0.63;;;;;;;-0.86;74.70;100298.13;5111411;28;20037;-73
2023/02/03 00:08:31;;;;;;;0.60;0.60;;;;;;;-0.88;74.64;100287.03;5095130;28;20028;-74
2023/02/03 00:10:57;;;;;;;0.68;0.68;;;;;;;-0.96;75.11;100284.22;5107218;28;20056;-74
2023/02/03 00:13:24;;;;;;;0.57;0.57;;;;;;;-0.93;74.95;100280.91;5107012;28;20031;-73
2023/02/03 00:15:50;;;;;;;0.70;0.70;;;;;;;-1.00;75.28;100270.47;5107096;28;20073;-75
2023/02/03 00:18:15;;;;;;;0.60;0.60;;;;;;;-0.82;75.29;100282.16;5088532;28;20019;-73
2023/02/03 00:20:41;;;;;;;0.60;0.60;;;;;;;-0.89;74.90;100250.47;5106955;28;20500;-75
2023/02/03 00:23:08;;;;;;;0.70;0.70;;;;;;;-0.78;74.55;100253.41;5088195;28;20059;-74
2023/02/03 00:25:34;;;;;;;0.70;0.70;;;;;;;-0.67;74.41;100245.28;5088394;28;20475;-74
2023/02/03 00:28:00;;;;;;;0.80;0.80;;;;;;;-0.75;74.98;100260.28;5106506;28;20032;-73
2023/02/03 00:30:26;;;;;;;0.60;0.60;;;;;;;-0.75;75.15;100257.72;5105433;28;20054;-73
2023/02/03 00:32:51;;;;;;;0.63;0.63;;;;;;;-0.94;75.97;100235.84;5105691;28;20024;-73
2023/02/03 00:35:17;;;;;;;0.60;0.60;;;;;;;-0.89;75.83;100230.09;5105395;28;20016;-74
2023/02/03 00:37:42;;;;;;;0.70;0.70;;;;;;;-0.93;76.26;100224.81;5087343;28;20533;-74
2023/02/03 00:40:08;;;;;;;0.60;0.60;;;;;;;-0.87;76.14;100225.03;5088453;28;20024;-74
2023/02/03 00:42:34;;;;;;;0.60;0.60;;;;;;;-0.68;75.47;100216.34;5088022;28;20020;-74
2023/02/03 00:45:00;;;;;;;0.60;0.60;;;;;;;-0.73;75.56;100194.94;5106225;28;20073;-73
2023/02/03 00:47:25;;;;;;;0.60;0.60;;;;;;;-0.80;76.03;100193.84;5088270;28;20042;-74
2023/02/03 00:49:51;;;;;;;0.50;0.50;;;;;;;-0.88;76.29;100175.72;5088037;28;20040;-74
2023/02/03 00:52:16;;;;;;;0.60;0.60;;;;;;;-0.89;76.79;100168.91;5106492;28;20024;-74
2023/02/03 00:54:42;;;;;;;0.70;0.70;;;;;;;-0.83;76.97;100165.69;5106316;28;20024;-74
2023/02/03 00:57:07;;;;;;;0.60;0.60;;;;;;;-0.83;77.02;100165.69;5105702;28;20095;-75
2023/02/03 00:59:32;;;;;;;0.70;0.70;;;;;;;-0.86;77.32;100135.00;5088026;28;20122;-75
2023/02/03 01:01:58;;;;;;;0.60;0.60;;;;;;;-0.69;77.79;100135.59;5088157;28;20027;-75
2023/02/03 01:04:23;;;;;;;0.68;0.68;;;;;;;-0.75;77.76;100125.16;5105805;28;20020;-74
2023/02/03 01:06:49;;;;;;;0.60;0.60;;;;;;;-0.90;78.67;100135.72;5105243;28;20060;-75
2023/02/03 01:09:14;;;;;;;0.60;0.60;;;;;;;-0.87;78.84;100110.34;5104321;28;20027;-76
2023/02/03 01:11:40;;;;;;;0.70;0.70;;;;;;;-0.68;79.17;100104.16;5105982;28;20020;-77
2023/02/03 01:14:06;;;;;;;0.60;0.60;;;;;;;-0.80;79.24;100096.13;5105632;28;20016;-75
2023/02/03 01:16:35;;;;;;;0.93;0.93;;;;;;;-0.79;80.00;100093.63;5105826;28;20047;-77
2023/02/03 01:19:00;;;;;;;0.60;0.60;;;;;;;-0.79;80.60;100080.88;5105677;28;20107;-76
2023/02/03 01:21:26;;;;;;;0.60;0.60;;;;;;;-0.89;81.02;100068.63;5087633;28;20024;-75
2023/02/03 01:23:52;;;;;;;0.70;0.70;;;;;;;-0.72;81.26;100061.56;5105864;28;20073;-77
2023/02/03 01:26:20;;;;;;;0.70;0.70;;;;;;;-0.67;81.11;100038.75;5087739;28;20054;-76
2023/02/03 01:28:53;;;;;;;0.70;0.70;;;;;;;-0.65;81.33;100042.19;5106134;28;20379;-75
2023/02/03 01:31:24;;;;;;;0.60;0.60;;;;;;;-0.73;82.08;100025.78;5105800;28;20030;-75
2023/02/03 01:33:54;;;;;;;0.80;0.80;;;;;;;-0.76;82.03;100022.34;5088367;28;20107;-76
2023/02/03 01:36:21;;;;;;;0.70;0.70;;;;;;;-0.87;82.96;100023.69;5090094;28;20069;-75
2023/02/03 01:38:47;;;;;;;0.68;0.68;;;;;;;-0.80;83.09;100010.31;5109457;28;20133;-77
2023/02/03 01:41:19;;;;;;;0.70;0.70;;;;;;;-0.87;83.44;100003.28;5110734;28;20058;-78
2023/02/03 01:43:50;;;;;;;2.30;1.50;;;;;;;-0.65;82.90;99986.09;5111653;28;20032;-79
2023/02/03 01:46:39;;;;;;;0.90;0.90;;;;;;;-0.60;83.79;99973.50;5109868;28;20071;-75
2023/02/03 01:49:09;;;;;;;0.60;0.60;;;;;;;-0.82;84.30;99963.53;5110430;28;20028;-76
2023/02/03 01:51:38;;;;;;;0.70;0.70;;;;;;;-0.83;85.06;99955.84;5109720;28;20048;-76
2023/02/03 01:54:08;;;;;;;0.70;0.70;;;;;;;-0.68;84.71;99945.22;5109781;28;20067;-77
2023/02/03 01:56:38;;;;;;;0.60;0.60;;;;;;;-0.69;85.32;99929.09;5105785;28;20056;-75
2023/02/03 01:59:04;;;;;;;0.60;0.60;;;;;;;-0.66;85.17;99924.06;5105305;28;20106;-75
2023/02/03 02:01:31;;;;;;;0.60;0.60;;;;;;;-0.66;85.33;99916.41;5105432;28;20096;-77
2023/02/03 02:04:00;;;;;;;0.60;0.60;;;;;;;-0.59;85.32;99909.78;5087017;28;20020;-75
2023/02/03 02:06:26;;;;;;;0.50;0.50;;;;;;;-0.61;85.97;99890.19;5105223;28;20019;-75
2023/02/03 02:08:52;;;;;;;0.70;0.70;;;;;;;-0.70;85.88;99885.69;5105016;28;20087;-76
2023/02/03 02:11:20;;;;;;;0.60;0.60;;;;;;;-0.81;87.01;99870.94;5086818;28;20043;-76
2023/02/03 02:13:47;;;;;;;0.60;0.60;;;;;;;-0.60;86.22;99866.41;5105184;28;20031;-75
2023/02/03 02:16:33;;;;;;;0.68;0.68;;;;;;;-0.63;85.85;99827.28;5086860;28;20023;-76
2023/02/03 02:19:38;;;;;;;0.70;0.70;;;;;;;-0.57;86.45;99820.59;5104973;28;20070;-75
2023/02/03 02:23:01;;;;;;;0.55;0.55;;;;;;;-0.64;87.13;99829.78;5108211;28;20126;-75
2023/02/03 02:25:52;;;;;;;0.70;0.70;;;;;;;-0.50;86.88;99828.44;5046088;28;20083;-74
2023/02/03 02:28:39;;;;;;;0.55;0.55;;;;;;;-0.40;86.63;99819.38;5046335;28;20029;-71
2023/02/03 02:31:10;;;;;;;0.70;0.70;;;;;;;-0.71;87.59;99822.75;5046230;28;20045;-75
2023/02/03 02:33:47;;;;;;;0.70;0.70;;;;;;;-0.47;87.40;99807.28;5029452;28;20021;-75
2023/02/03 02:36:21;;;;;;;0.60;0.60;;;;;;;-0.62;87.62;99787.31;5046461;28;20030;-75
2023/02/03 02:38:59;;;;;;;0.90;0.90;;;;;;;-0.61;87.67;99783.97;5046265;28;20036;-77
2023/02/03 02:41:39;;;;;;;0.50;0.50;;;;;;;-0.45;87.79;99769.94;5029445;28;20097;-76
2023/02/03 02:44:11;;;;;;;0.60;0.60;;;;;;;-0.39;87.07;99765.00;5045672;28;20095;-75
2023/02/03 02:46:47;;;;;;;0.60;0.60;;;;;;;-0.33;86.95;99756.63;5046178;28;20100;-75
2023/02/03 02:49:27;;;;;;;0.60;0.60;;;;;;;-0.50;87.55;99751.09;5028965;28;20034;-74
2023/02/03 02:51:53;;;;;;;0.70;0.70;;;;;;;-0.57;88.20;99750.06;5045747;28;20053;-74
2023/02/03 02:54:23;;;;;;;0.60;0.60;;;;;;;-0.40;87.52;99722.44;5046061;28;20029;-74
2023/02/03 02:56:52;;;;;;;0.70;0.70;;;;;;;-0.45;87.73;99720.63;5101531;28;20500;-76
2023/02/03 02:59:18;;;;;;;0.60;0.60;;;;;;;-0.56;88.26;99705.03;5090363;28;20034;-75
2023/02/03 03:01:43;;;;;;;0.70;0.70;;;;;;;-0.64;88.69;99692.09;5090313;28;20376;-76
2023/02/03 03:04:12;;;;;;;0.50;0.50;;;;;;;-0.41;87.55;99697.78;5109451;28;20017;-75
2023/02/03 03:06:47;;;;;;;0.60;0.60;;;;;;;-0.52;88.55;99666.03;5092140;28;20361;-73
2023/02/03 03:09:24;;;;;;;0.60;0.60;;;;;;;-0.42;88.12;99662.91;5112873;28;20028;-73
2023/02/03 03:11:57;;;;;;;0.50;0.50;;;;;;;-0.48;88.29;99646.59;5090134;28;20035;-73
2023/02/03 03:14:26;;;;;;;0.70;0.70;;;;;;;-0.50;87.98;99634.63;5108409;28;20020;-74
2023/02/03 03:17:09;;;;;;;0.52;0.52;;;;;;;-0.50;88.52;99624.44;5108300;28;20024;-73
2023/02/03 03:19:40;;;;;;;0.60;0.60;;;;;;;-0.33;87.52;99621.44;5108075;28;20020;-72
2023/02/03 03:22:09;;;;;;;0.70;0.70;;;;;;;-0.45;88.00;99600.75;5108133;28;20023;-74
2023/02/03 03:24:46;;;;;;;0.60;0.60;;;;;;;-0.75;89.18;99593.25;5108075;28;20361;-74
2023/02/03 03:27:38;;;;;;;0.50;0.50;;;;;;;-0.56;89.00;99565.66;5089679;28;20032;-73
2023/02/03 03:30:15;;;;;;;0.80;0.80;;;;;;;-0.38;87.96;99549.03;5107511;28;20040;-72
2023/02/03 03:32:41;;;;;;;1.92;1.83;;;;;;;-0.34;87.49;99557.63;5088934;28;20035;-74
2023/02/03 03:35:06;;;;;;;0.70;0.70;;;;;;;-0.33;87.82;99518.53;5089496;28;20024;-71
2023/02/03 03:37:34;;;;;;;0.60;0.60;;;;;;;-0.20;87.35;99547.72;5107814;28;20031;-72
2023/02/03 03:40:08;;;;;;;0.70;0.70;;;;;;;-0.29;87.85;99533.94;5107626;28;20024;-72
2023/02/03 03:43:00;;;;;;;0.60;0.60;;;;;;;-0.52;88.28;99507.94;5107535;28;20031;-73
2023/02/03 03:45:40;;;;;;;0.70;0.70;;;;;;;-0.50;88.83;99496.94;5082756;28;20044;-73
2023/02/03 03:48:08;;;;;;;0.55;0.55;;;;;;;-0.65;89.57;99477.06;5107515;28;20472;-73
2023/02/03 03:50:40;;;;;;;0.70;0.70;;;;;;;-0.22;88.09;99468.59;5107493;28;20036;-72
2023/02/03 03:53:07;;;;;;;0.80;0.80;;;;;;;-0.33;88.22;99464.97;5107489;28;20024;-73
2023/02/03 03:55:35;;;;;;;0.65;0.65;;;;;;;-0.24;88.07;99464.31;5089215;28;20024;-73
2023/02/03 03:58:04;;;;;;;0.60;0.60;;;;;;;-0.51;88.79;99438.25;5107310;28;20077;-72
2023/02/03 04:00:34;;;;;;;0.60;0.60;;;;;;;-0.64;89.84;99448.19;5107592;28;20111;-74
2023/02/03 04:03:05;;;;;;;0.70;0.70;;;;;;;-0.26;88.79;99459.19;5089031;28;20103;-74
2023/02/03 04:05:32;;;;;;;6.63;5.45;;;;;;;-0.43;89.02;99435.88;5107245;28;20020;-75
2023/02/03 04:07:58;;;;;;;0.70;0.70;;;;;;;-0.70;90.17;99412.38;5107236;28;20058;-73
2023/02/03 04:10:34;;;;;;;0.60;0.60;;;;;;;-0.66;90.94;99403.09;5088890;28;20027;-70
2023/02/03 04:13:00;;;;;;;0.60;0.60;;;;;;;-0.45;89.89;99395.06;5107237;28;20039;-73
2023/02/03 04:15:26;;;;;;;0.60;0.60;;;;;;;-0.29;88.69;99373.22;5107080;28;20465;-73
2023/02/03 04:17:53;;;;;;;0.70;0.70;;;;;;;-0.31;88.41;99363.84;5106990;28;20024;-73
2023/02/03 04:20:19;;;;;;;0.65;0.65;;;;;;;-0.47;89.55;99350.81;5088573;28;20024;-71
2023/02/03 04:22:44;;;;;;;0.70;0.70;;;;;;;-0.34;89.33;99354.44;5106757;28;20022;-72
2023/02/03 04:25:10;;;;;;;0.52;0.52;;;;;;;-0.47;89.65;99327.84;5106638;28;20043;-72
2023/02/03 04:27:35;;;;;;;0.70;0.70;;;;;;;-0.32;88.86;99334.06;5106792;28;20026;-72
2023/02/03 04:30:01;;;;;;;0.60;0.60;;;;;;;-0.49;90.00;99326.94;5107101;28;20043;-72
2023/02/03 04:32:26;;;;;;;0.60;0.60;;;;;;;-0.56;90.63;99317.47;5105338;28;20024;-72
2023/02/03 04:34:52;;;;;;;0.70;0.70;;;;;;;-0.41;90.63;99306.69;5088540;28;20623;-72
2023/02/03 04:37:17;;;;;;;0.60;0.60;;;;;;;-0.52;90.86;99297.16;5106640;28;20028;-72
2023/02/03 04:39:43;;;;;;;0.60;0.60;;;;;;;-0.19;89.77;99282.44;5088418;28;20024;-72
2023/02/03 04:42:08;;;;;;;0.60;0.60;;;;;;;-0.45;90.77;99269.22;5106439;28;20067;-71
2023/02/03 04:44:34;;;;;;;0.60;0.60;;;;;;;-0.40;90.21;99258.28;5086783;28;20043;-72
2023/02/03 04:46:59;;;;;;;0.60;0.60;;;;;;;-0.46;91.12;99259.88;5106459;28;20028;-71
2023/02/03 04:49:24;;;;;;;0.70;0.70;;;;;;;-0.59;91.40;99244.31;5106278;28;20353;-72
2023/02/03 04:51:50;;;;;;;0.55;0.55;;;;;;;-0.50;91.46;99236.00;5086651;28;20047;-71
2023/02/03 04:54:16;;;;;;;0.60;0.60;;;;;;;-0.33;90.81;99230.31;5085901;28;20020;-71
2023/02/03 04:56:41;;;;;;;0.60;0.60;;;;;;;-0.37;90.83;99216.69;5085948;28;20040;-73
2023/02/03 04:59:07;;;;;;;0.60;0.60;;;;;;;-0.58;91.79;99206.94;5085998;28;20361;-73
2023/02/03 05:01:32;;;;;;;0.60;0.60;;;;;;;-0.59;91.82;99216.28;5085737;28;20024;-72
2023/02/03 05:03:58;;;;;;;0.60;0.60;;;;;;;-0.56;91.72;99205.31;5085538;28;20035;-73
2023/02/03 05:06:25;;;;;;;0.65;0.65;;;;;;;-0.75;92.64;99187.97;5085741;28;20024;-73
2023/02/03 05:08:51;;;;;;;0.60;0.60;;;;;;;-0.71;93.69;99181.25;5067706;28;20465;-70
2023/02/03 05:11:17;;;;;;;0.60;0.60;;;;;;;-0.80;93.53;99171.72;5085638;28;20032;-73
2023/02/03 05:13:42;;;;;;;0.60;0.60;;;;;;;-0.49;93.28;99171.41;5085709;28;20154;-72
2023/02/03 05:16:07;;;;;;;0.60;0.60;;;;;;;-0.51;92.45;99173.94;5085668;28;20036;-69
2023/02/03 05:18:33;;;;;;;0.68;0.68;;;;;;;-0.48;92.04;99151.88;5085215;28;20029;-71
2023/02/03 05:20:58;;;;;;;0.60;0.60;;;;;;;-0.50;91.53;99147.59;5067437;28;20020;-72
2023/02/03 05:23:24;;;;;;;0.68;0.68;;;;;;;-0.17;90.22;99137.91;5067263;28;20028;-69
2023/02/03 05:25:49;;;;;;;0.60;0.60;;;;;;;-0.37;90.85;99140.16;5085545;28;20472;-70
2023/02/03 05:28:15;;;;;;;0.60;0.60;;;;;;;-0.50;90.92;99129.75;5085745;28;20024;-72
2023/02/03 05:30:40;;;;;;;0.52;0.52;;;;;;;-0.43;91.22;99115.41;5085482;28;20020;-72
2023/02/03 05:33:06;;;;;;;0.60;0.60;;;;;;;-0.72;92.24;99103.09;5067277;28;20039;-72
2023/02/03 05:35:31;;;;;;;0.50;0.50;;;;;;;-0.84;93.71;99102.84;5085216;28;20052;-70
2023/02/03 05:37:58;;;;;;;0.55;0.55;;;;;;;-0.91;94.05;99107.00;5085369;28;20025;-72
2023/02/03 05:43:07;;;;;;;0.57;0.57;;;;;;;-0.75;92.91;99069.88;5085423;28;20027;-70
2023/02/03 05:45:33;;;;;;;0.60;0.60;;;;;;;-0.90;93.72;99065.41;5085012;28;20044;-71
2023/02/03 05:47:58;;;;;;;0.65;0.65;;;;;;;-0.77;93.25;99044.34;5067193;28;20021;-71
2023/02/03 05:50:25;;;;;;;0.60;0.60;;;;;;;-0.67;92.84;99029.22;5085077;28;20047;-69
2023/02/03 05:52:51;;;;;;;0.68;0.68;;;;;;;-0.64;92.84;99027.56;5066599;28;20511;-70
2023/02/03 05:55:16;;;;;;;0.60;0.60;;;;;;;-0.44;91.52;99023.59;5084984;28;20017;-70
2023/02/03 05:57:42;;;;;;;0.60;0.60;;;;;;;-0.62;92.73;99009.75;5085226;28;20048;-70
2023/02/03 06:00:08;;;;;;;0.70;0.70;;;;;;;-0.58;93.08;98992.81;5085376;28;20427;-70
2023/02/03 06:02:33;;;;;;;0.60;0.60;;;;;;;-0.76;92.20;98964.53;5084907;28;20036;-71
2023/02/03 06:04:59;;;;;;;0.60;0.60;;;;;;;-0.59;92.68;98991.94;5067078;28;20255;-71
2023/02/03 06:07:24;;;;;;;0.55;0.55;;;;;;;-0.58;93.00;98996.22;5066977;28;20048;-70
2023/02/03 06:09:49;;;;;;;0.70;0.70;;;;;;;-0.54;93.12;98985.22;5086081;28;20027;-69
2023/02/03 06:12:15;;;;;;;0.60;0.60;;;;;;;-0.32;91.95;98982.09;5085357;28;20036;-71
2023/02/03 06:14:40;;;;;;;0.60;0.60;;;;;;;-0.57;92.22;98961.38;5085099;28;20017;-71
2023/02/03 06:17:06;;;;;;;0.60;0.60;;;;;;;-0.42;92.65;98968.38;5085117;28;20035;-71
2023/02/03 06:19:31;;;;;;;0.50;0.50;;;;;;;-0.61;93.46;98973.25;5066730;28;20365;-72
2023/02/03 06:21:57;;;;;;;0.70;0.70;;;;;;;-0.60;93.12;98949.44;5067083;28;20039;-75
2023/02/03 06:24:22;;;;;;;0.60;0.60;;;;;;;-0.53;93.38;98960.59;5085683;28;20112;-72
2023/02/03 06:26:47;;;;;;;0.50;0.50;;;;;;;-0.45;92.84;98947.94;5085707;28;20021;-72
2023/02/03 06:29:13;;;;;;;0.50;0.50;;;;;;;-0.36;92.68;98927.66;5085733;28;20084;-76
2023/02/03 06:31:38;;;;;;;0.60;0.60;;;;;;;-0.39;92.46;98930.16;5084875;28;20054;-71
2023/02/03 06:34:04;;;;;;;0.60;0.60;;;;;;;-0.16;91.20;98914.28;5085329;28;20079;-70
2023/02/03 06:36:29;;;;;;;0.60;0.60;;;;;;;0.01;90.72;98923.81;5085489;28;20025;-70
2023/02/03 06:38:55;;;;;;;0.60;0.60;;;;;;;-0.31;91.24;98909.84;5085760;28;20016;-72
2023/02/03 06:41:26;;;;;;;0.57;0.57;;;;;;;-0.08;91.43;98905.00;5085439;28;20025;-72
2023/02/03 06:43:51;;;;;;;0.65;0.65;;;;;;;-0.06;91.03;98902.47;5067356;28;20017;-71
2023/02/03 06:46:17;;;;;;;0.60;0.60;;;;;;;-0.46;92.02;98892.69;5084367;28;20178;-74
2023/02/03 06:48:42;;;;;;;0.70;0.70;;;;;;;-0.28;92.52;98892.91;5084608;28;20093;-74
2023/02/03 06:51:07;;;;;;;0.50;0.50;;;;;;;-0.29;92.45;98880.13;5084667;28;20238;-73
2023/02/03 06:53:33;;;;;;;0.68;0.68;;;;;;;-0.40;92.02;98867.25;5084731;28;20435;-73
2023/02/03 06:56:00;;;;;;;0.47;0.47;;;;;;;-0.18;91.23;98862.38;5084608;28;20488;-71
2023/02/03 06:58:26;;;;;;;0.60;0.60;;;;;;;-0.11;90.32;98853.94;5066695;28;20020;-73
2023/02/03 07:00:55;;;;;;;0.60;0.60;;;;;;;-0.21;90.47;98875.97;5084171;28;20026;-73
2023/02/03 07:03:20;;;;;;;0.50;0.50;;;;;;;-0.49;92.60;98868.00;5084296;28;20088;-73
2023/02/03 07:05:46;;;;;;;0.60;0.60;;;;;;;-0.03;90.92;98859.97;5084627;28;20048;-72
2023/02/03 07:08:11;;;;;;;0.60;0.60;;;;;;;-0.21;90.34;98872.56;5068044;28;20040;-74
2023/02/03 07:10:37;;;;;;;0.60;0.60;;;;;;;-0.06;90.93;98853.97;5088318;28;20029;-72
2023/02/03 07:13:05;;;;;;;0.60;0.60;;;;;;;-0.21;91.34;98885.31;5088194;28;20020;-72
2023/02/03 07:15:31;;;;;;;0.60;0.60;;;;;;;0.06;90.48;98873.69;5070123;28;20105;-74
2023/02/03 07:17:56;;;;;;;0.50;0.50;;;;;;;0.09;90.00;98878.81;5088367;28;20021;-72
2023/02/03 07:20:23;;;;;;;0.60;0.60;;;;;;;-0.35;91.61;98873.25;5088160;28;20107;-72
2023/02/03 07:22:56;;;;;;;0.50;0.50;;;;;;;-0.36;93.04;98886.84;5069956;28;20024;-73
2023/02/03 07:25:22;;;;;;;0.60;0.60;;;;;;;-0.44;93.10;98885.91;5069867;28;20088;-74
2023/02/03 07:27:48;;;;;;;0.60;0.60;;;;;;;-0.25;92.94;98871.66;5087975;28;20032;-74
2023/02/03 07:30:13;;;;;;;0.60;0.60;;;;;;;-0.18;92.19;98877.69;5088039;28;20043;-75
2023/02/03 07:32:39;;;;;;;0.60;0.60;;;;;;;-0.26;93.29;98883.53;5087714;28;20024;-74
2023/02/03 07:35:05;;;;;;;0.57;0.57;;;;;;;-0.36;93.97;98871.53;5087691;28;20019;-74
2023/02/03 07:37:30;;;;;;;0.60;0.60;;;;;;;-0.43;94.16;98870.63;5087759;28;20016;-74
2023/02/03 07:39:55;;;;;;;0.60;0.60;;;;;;;-0.04;92.78;98873.59;5087887;28;20024;-73
2023/02/03 07:42:21;;;;;;;0.50;0.50;;;;;;;-0.19;92.85;98887.03;5087615;28;20027;-76
2023/02/03 07:44:46;;;;;;;0.50;0.50;;;;;;;-0.35;94.18;98877.50;5069381;28;20047;-73
2023/02/03 07:47:12;;;;;;;0.50;0.50;;;;;;;-0.43;94.07;98879.97;5069550;28;20045;-74
2023/02/03 07:49:37;;;;;;;0.50;0.50;;;;;;;-0.09;92.32;98910.09;5069599;28;20025;-76
2023/02/03 07:52:03;;;;;;;0.60;0.60;;;;;;;-0.24;93.31;98895.47;5087374;28;20032;-75
2023/02/03 07:54:28;;;;;;;0.50;0.50;;;;;;;-0.15;93.34;98895.56;5087532;28;20023;-76
2023/02/03 07:56:54;;;;;;;0.60;0.60;;;;;;;-0.21;93.05;98868.31;5087359;28;20025;-72
2023/02/03 07:59:20;;;;;;;0.55;0.55;;;;;;;-0.33;93.39;98891.13;5087377;28;20042;-75
2023/02/03 08:01:45;;;;;;;0.60;0.60;;;;;;;-0.41;94.39;98891.91;5087323;28;20035;-75
2023/02/03 08:04:15;;;;;;;0.70;0.70;;;;;;;-0.22;93.88;98869.13;5087080;28;20020;-72
2023/02/03 08:06:41;;;;;;;0.55;0.55;;;;;;;-0.21;93.35;98901.47;5069299;28;20025;-74
2023/02/03 08:09:06;;;;;;;0.60;0.60;;;;;;;-0.41;94.36;98909.75;5087453;28;20033;-73
2023/02/03 08:11:32;;;;;;;0.50;0.50;;;;;;;-0.32;94.56;98903.06;5087093;28;20025;-73
2023/02/03 08:13:57;;;;;;;0.60;0.60;;;;;;;-0.19;94.50;98909.16;5087156;28;20028;-71
2023/02/03 08:16:22;;;;;;;0.50;0.50;;;;;;;-0.30;93.63;98914.09;5087045;28;20016;-72
2023/02/03 08:18:48;;;;;;;0.50;0.50;;;;;;;-0.29;93.97;98919.22;5086613;28;20090;-71
2023/02/03 08:21:13;;;;;;;0.55;0.55;;;;;;;-0.27;93.77;98922.66;5086690;28;20044;-74
2023/02/03 08:23:39;;;;;;;0.50;0.50;;;;;;;-0.31;93.60;98923.47;5086854;28;20020;-71
2023/02/03 08:26:04;;;;;;;0.60;0.60;;;;;;;-0.36;94.43;98926.78;5068837;28;20016;-73
2023/02/03 08:28:30;;;;;;;0.50;0.50;;;;;;;-0.42;94.70;98932.69;5068768;28;20028;-72
2023/02/03 08:30:56;;;;;;;0.60;0.60;;;;;;;-0.29;94.64;98947.28;5086858;28;20088;-72
2023/02/03 08:33:22;;;;;;;0.50;0.50;;;;;;;-0.40;94.98;98953.97;5068697;28;20024;-71
2023/02/03 08:35:48;;;;;;;0.60;0.60;;;;;;;-0.43;95.16;98938.63;5086500;28;20032;-71
2023/02/03 08:38:14;;;;;;;0.52;0.52;;;;;;;-0.34;94.85;98953.16;5086541;28;20107;-70
2023/02/03 08:40:39;;;;;;;0.60;0.60;;;;;;;-0.30;94.81;98968.53;5086579;28;20024;-70
2023/02/03 08:43:05;;;;;;;0.50;0.50;;;;;;;-0.31;95.02;98986.38;5086292;28;20029;-70
2023/02/03 08:45:30;;;;;;;0.60;0.60;;;;;;;-0.29;95.14;98989.81;5086175;28;20041;-71
2023/02/03 08:47:56;;;;;;;0.55;0.55;;;;;;;-0.27;95.00;98988.09;5086291;28;20022;-70
2023/02/03 08:50:21;;;;;;;0.60;0.60;;;;;;;-0.24;95.02;98995.81;5086241;28;20116;-69
2023/02/03 08:52:47;;;;;;;0.50;0.50;;;;;;;-0.16;94.77;99011.22;5086188;28;20031;-70
2023/02/03 08:55:12;;;;;;;0.57;0.57;;;;;;;-0.18;94.70;99028.19;5068204;28;20051;-71
2023/02/03 08:57:40;;;;;;;0.57;0.57;;;;;;;-0.23;95.11;99024.72;5086311;28;20127;-69
2023/02/03 09:00:08;;;;;;;0.50;0.50;;;;;;;-0.20;95.14;99028.19;5086142;28;20506;-69
2023/02/03 09:02:33;;;;;;;0.50;0.50;;;;;;;-0.23;95.35;99034.91;5068126;28;20035;-69
2023/02/03 09:04:59;;;;;;;0.60;0.60;;;;;;;-0.19;95.34;99047.72;5086274;28;20092;-69
2023/02/03 09:07:25;;;;;;;0.50;0.50;;;;;;;-0.13;95.31;99046.97;5086150;28;20102;-69
2023/02/03 09:09:50;;;;;;;0.60;0.60;;;;;;;-0.18;95.42;99074.13;5086095;28;20092;-70
2023/02/03 09:12:16;;;;;;;0.52;0.52;;;;;;;-0.06;94.91;99088.72;5085944;28;20025;-69
2023/02/03 09:14:41;;;;;;;0.60;0.60;;;;;;;-0.16;95.09;99078.38;5086388;28;20025;-70
2023/02/03 09:17:08;;;;;;;0.60;0.60;;;;;;;-0.13;95.19;99078.44;5086582;28;20024;-69
2023/02/03 09:19:34;;;;;;;0.60;0.60;;;;;;;-0.12;95.43;99097.16;5086544;28;20025;-69
2023/02/03 09:21:59;;;;;;;0.50;0.50;;;;;;;-0.09;95.42;99109.94;5086239;28;20062;-69
2023/02/03 09:24:25;;;;;;;0.63;0.63;;;;;;;-0.07;95.31;99112.53;5086345;28;20025;-69
2023/02/03 09:26:51;;;;;;;0.60;0.60;;;;;;;-0.10;95.41;99123.56;5086231;28;20028;-68
2023/02/03 09:29:16;;;;;;;0.50;0.50;;;;;;;-0.10;95.39;99126.09;5086117;28;20031;-68
2023/02/03 09:31:42;;;;;;;0.50;0.50;;;;;;;-0.14;95.59;99120.09;5067257;28;20388;-69
2023/02/03 09:34:08;;;;;;;0.60;0.60;;;;;;;-0.02;95.30;99141.53;5085646;28;20017;-68
2023/02/03 09:36:34;;;;;;;0.50;0.50;;;;;;;-0.06;95.11;99158.47;5085519;28;20173;-68
2023/02/03 09:39:00;;;;;;;0.50;0.50;;;;;;;0.05;95.11;99168.84;5085574;28;20024;-67
2023/02/03 09:42:18;;;;;;;0.50;0.50;;;;;;;-0.04;95.64;99172.13;5085330;28;20034;-69
2023/02/03 09:44:58;;;;;;;0.60;0.60;;;;;;;0.02;95.30;99176.44;5003268;28;20042;-67
2023/02/03 09:47:31;;;;;;;0.60;0.60;;;;;;;0.00;95.66;99180.69;5003624;28;20030;-66
2023/02/03 09:50:04;;;;;;;0.60;0.60;;;;;;;-0.05;95.87;99193.34;5003376;28;20046;-65
2023/02/03 09:52:34;;;;;;;0.60;0.60;;;;;;;-0.06;96.07;99217.16;5003466;28;20038;-66
2023/02/03 09:55:17;;;;;;;0.52;0.52;;;;;;;0.02;96.18;99230.03;4987400;28;20045;-66
2023/02/03 09:57:50;;;;;;;0.60;0.60;;;;;;;-0.06;96.34;99242.69;5003599;28;20030;-66
2023/02/03 10:00:21;;;;;;;0.60;0.60;;;;;;;0.01;96.49;99247.88;4987343;28;20030;-67
2023/02/03 10:03:02;;;;;;;0.60;0.60;;;;;;;0.05;96.48;99272.63;4987629;28;20030;-66
2023/02/03 10:05:46;;;;;;;0.60;0.60;;;;;;;0.02;96.44;99285.34;5003158;28;20042;-66
2023/02/03 10:08:39;;;;;;;0.50;0.50;;;;;;;-0.01;96.28;99299.75;5003530;28;20058;-67
2023/02/03 10:11:10;;;;;;;0.50;0.50;;;;;;;-0.04;96.38;99296.28;5003161;28;20105;-67
2023/02/03 10:13:44;;;;;;;0.80;0.80;;;;;;;0.01;96.34;99311.69;5003206;28;20032;-67
2023/02/03 10:16:30;;;;;;;0.70;0.70;;;;;;;-0.04;96.26;99312.47;5003537;28;20549;-67
2023/02/03 10:18:59;;;;;;;0.50;0.50;;;;;;;0.02;95.54;99313.41;5061560;28;20086;-67
2023/02/03 10:21:36;;;;;;;0.52;0.52;;;;;;;0.03;95.71;99336.41;5085071;28;20074;-68
2023/02/03 10:24:04;;;;;;;0.60;0.60;;;;;;;0.03;95.73;99344.06;5084925;28;20534;-67
2023/02/03 10:26:30;;;;;;;0.70;0.70;;;;;;;0.06;95.90;99349.22;5066949;28;20469;-67
2023/02/03 10:29:51;;;;;;;0.50;0.50;;;;;;;0.11;96.05;99357.78;5085090;28;20107;-69
2023/02/03 10:32:16;;;;;;;0.60;0.60;;;;;;;0.02;96.41;99367.00;5003105;28;20026;-69
2023/02/03 10:34:46;;;;;;;0.60;0.60;;;;;;;0.08;96.29;99373.06;5002976;28;20426;-68
2023/02/03 10:37:30;;;;;;;0.45;0.45;;;;;;;0.07;96.45;99383.22;5003300;28;20069;-69
2023/02/03 10:39:58;;;;;;;0.50;0.50;;;;;;;0.11;96.23;99372.28;5003218;28;20037;-68
2023/02/03 10:42:24;;;;;;;0.55;0.55;;;;;;;0.21;95.48;99365.59;5004917;28;20057;-69
2023/02/03 10:44:57;;;;;;;0.80;0.80;;;;;;;0.24;95.17;99358.00;5006463;28;20054;-70
2023/02/03 10:47:36;;;;;;;0.60;0.60;;;;;;;0.15;95.52;99375.72;5006856;28;20081;-71
2023/02/03 10:50:14;;;;;;;0.55;0.55;;;;;;;0.17;95.98;99385.13;5006562;28;20539;-71
2023/02/03 10:52:39;;;;;;;0.55;0.55;;;;;;;0.18;96.09;99403.84;5006888;28;20038;-71
2023/02/03 10:55:08;;;;;;;0.50;0.50;;;;;;;0.19;96.16;99426.84;5006728;28;20040;-71
2023/02/03 10:57:38;;;;;;;0.50;0.50;;;;;;;0.16;96.29;99441.25;5006683;28;20038;-71
2023/02/03 11:00:22;;;;;;;0.50;0.50;;;;;;;0.19;96.55;99456.63;5006609;28;20061;-71
2023/02/03 11:02:57;;;;;;;0.60;0.60;;;;;;;0.22;96.48;99452.44;5006548;28;20482;-71
2023/02/03 11:05:25;;;;;;;0.60;0.60;;;;;;;0.27;96.54;99479.75;5017999;28;20127;-71
2023/02/03 11:07:51;;;;;;;0.60;0.60;;;;;;;0.27;96.17;99470.41;5088358;28;20031;-71
2023/02/03 11:10:37;;;;;;;0.60;0.60;;;;;;;0.30;96.47;99474.69;5088573;28;20032;-71
2023/02/03 11:13:15;;;;;;;0.60;0.60;;;;;;;0.31;96.05;99481.53;5070218;28;20508;-71
2023/02/03 11:15:53;;;;;;;0.60;0.60;;;;;;;0.26;96.15;99484.00;5088394;28;20088;-72
2023/02/03 11:18:35;;;;;;;0.70;0.70;;;;;;;0.22;96.12;99493.28;5088304;28;20480;-73
2023/02/03 11:21:08;;;;;;;0.60;0.60;;;;;;;0.18;96.05;99498.28;5088058;28;20032;-73
2023/02/03 11:23:33;;;;;;;0.60;0.60;;;;;;;0.15;96.28;99493.13;5088165;28;20039;-74
2023/02/03 11:26:09;;;;;;;0.50;0.50;;;;;;;0.21;96.47;99513.66;5088009;28;20025;-73
2023/02/03 11:28:35;;;;;;;0.60;0.60;;;;;;;0.19;96.44;99544.28;5069975;28;20032;-73
2023/02/03 11:31:00;;;;;;;0.60;0.60;;;;;;;0.20;96.50;99547.69;5088162;28;20029;-73
2023/02/03 11:33:27;;;;;;;0.60;0.60;;;;;;;0.16;96.27;99545.94;5087876;28;20031;-74
2023/02/03 11:35:58;;;;;;;0.60;0.60;;;;;;;0.17;96.61;99568.06;5069889;28;20020;-74
2023/02/03 11:38:35;;;;;;;0.60;0.60;;;;;;;0.18;96.75;99585.97;5069797;28;20035;-72
2023/02/03 11:41:01;;;;;;;0.50;0.50;;;;;;;0.21;96.65;99605.56;5087730;28;20044;-71
2023/02/03 11:43:30;;;;;;;0.60;0.60;;;;;;;0.26;96.90;99621.00;5087795;28;20024;-73
2023/02/03 11:46:06;;;;;;;0.50;0.50;;;;;;;0.26;96.85;99613.34;5087706;28;20044;-73